Jacksonville, FL (32209)

12:22 AM EDT on August 21, 2014 (GMT -0400)
Historic Springfield | Change Station
CLOSE
Current Station
Personal Weather Station
Location: Jacksonville, FL
Elevation: 37 ft
Nearby Weather Stations
Active Advisory: Heat Advisory

Elev 37 ft 30.35 °N, 81.66 °W | Updated 4 seconds ago

Partly Cloudy
Partly Cloudy
83.3 °F
Feels Like 92 °F
N
0.4
Wind Variable Wind from SW
Gusts 2.5 mph

Today
High -- | Low -- °F
--% Chance of Precip.
Yesterday
High -- | Low -- °F
Precip. -- in
6:57 AM 8:02 PM
Waning Crescent, 17% visible
Pressure 30.08 in
Visibility 10.0 miles
Clouds Few 25000 ft
Heat Index 92 °F
Dew Point 76 °F
Humidity 79%
Rainfall 0.00 in
Snow Depth Not available.
UV 0 out of 12
Pollen 7.90 out of 12
PM2.5 Moderate
Flu Activity Not available.
METAR KNIP 210353Z 20005KT 10SM FEW250 30/23 A3009 RMK AO2 SLP186 T03000228

More Conditions Fewer Conditions

Pressure 30.08 in
Visibility 10.0 miles
Clouds Few 25000 ft
Heat Index 92 °F
Dew Point 76 °F
Humidity 79%
Rainfall 0.00 in
Snow Depth Not available.
UV 0 out of 12
Pollen 7.90 out of 12
PM2.5 Moderate
Flu Activity Not available.
METAR KNIP 210353Z 20005KT 10SM FEW250 30/23 A3009 RMK AO2 SLP186 T03000228

More Conditions Fewer Conditions

10-Day Weather Forecast

Almanac

Astronomy

Aug. 21, 2014 Rise Set
Actual Time 6:57 AM EDT 8:02 PM EDT
Civil Twilight 6:32 AM EDT 8:26 PM EDT
Nautical Twilight 6:02 AM EDT 8:56 PM EDT
Astronomical Twilight 5:32 AM EDT 9:26 PM EDT
Moon 3:33 AM EDT 5:24 PM EDT
Length of Visible Light 13h 54m
Length of Day
13h 04m
Tomorrow will be 1m 40s shorter.
Waning Crescent, 17% of the Moon is Illuminated
Today
Waning Crescent
Aug 25
New
Sep 2
First Quarter
Sep 8
Full
Sep 15
Last Quarter

Yesterday's Extremes

State Highs State Lows

Community

WunderPhotos

Upload Photos

1,745,852 photos uploaded!

Nearby

Air Quality

  Air Quality AQ Index Pollutant
Yesterday Good
PM2.5
Yesterday Good
OZONE
Current Moderate
PM2.5
Wednesday Good
OZONE
Wednesday Good
PM2.5
Thursday Moderate
OZONE
Thursday Moderate
PM2.5

Snow Depth

Station Depth Elevation
No new snow has been reported.

Earthquake Activity

City Distance Mag. Time & Date
No recent earthquake activity has been reported nearby.
Minimum magnitude displayed is 2.5.

Coastal Water Temperatures

Place Temperature
Mayport (Bar Pilots Dock), FL 84.0 °F
Fernandina Beach, FL 84.9 °F

Nearby Weather Stations